createdAt,value
2022-12-08T00:02:49.181Z,13.00
2022-12-08T00:07:09.994Z,12.30
2022-12-08T00:11:13.534Z,12.43
2022-12-08T00:15:16.724Z,12.50
2022-12-08T00:19:21.533Z,12.87
2022-12-08T00:23:24.595Z,12.00
2022-12-08T00:27:27.640Z,12.37
2022-12-08T00:31:30.970Z,12.53
2022-12-08T00:36:10.565Z,12.67
2022-12-08T00:40:13.676Z,13.67
2022-12-08T00:44:19.662Z,13.70
2022-12-08T00:48:22.673Z,13.97
2022-12-08T00:52:27.095Z,13.53
2022-12-08T00:56:30.084Z,14.27
2022-12-08T01:00:33.162Z,12.37
2022-12-08T01:05:09.806Z,13.10
2022-12-08T01:09:15.970Z,13.90
2022-12-08T01:13:18.976Z,13.50
2022-12-08T01:17:22.012Z,13.50
2022-12-08T01:21:25.208Z,12.70
2022-12-08T01:25:29.654Z,13.27
2022-12-08T01:29:32.867Z,13.77
2022-12-08T01:33:35.890Z,13.20
2022-12-08T01:37:38.928Z,14.30
2022-12-08T01:41:45.054Z,14.00
2022-12-08T01:45:48.871Z,12.47
2022-12-08T01:49:51.973Z,14.07
2022-12-08T01:53:55.419Z,13.90
2022-12-08T01:58:04.446Z,13.23
2022-12-08T02:02:07.624Z,14.43
2022-12-08T02:06:11.256Z,14.10
2022-12-08T02:10:20.536Z,13.93
2022-12-08T02:14:52.737Z,14.23
2022-12-08T02:19:30.366Z,14.50
2022-12-08T02:23:39.726Z,14.17
2022-12-08T02:27:53.716Z,15.00
2022-12-08T02:32:11.638Z,14.50
2022-12-08T02:36:22.036Z,14.27
2022-12-08T02:40:31.791Z,14.07
2022-12-08T02:44:39.069Z,14.40
2022-12-08T02:49:09.463Z,15.10
2022-12-08T02:57:29.685Z,13.63
2022-12-08T03:01:54.060Z,13.97
2022-12-08T03:06:06.932Z,14.70
2022-12-08T03:10:17.403Z,15.27
2022-12-08T03:14:22.965Z,16.77
2022-12-08T03:18:30.236Z,16.33
2022-12-08T03:22:34.108Z,18.33
2022-12-08T03:26:49.035Z,17.00
2022-12-08T03:30:56.958Z,16.10
2022-12-08T03:35:03.047Z,18.33
2022-12-08T03:39:06.132Z,16.53
2022-12-08T03:43:11.102Z,17.10
2022-12-08T03:47:14.218Z,16.10
2022-12-08T03:51:17.911Z,14.70
2022-12-08T03:55:21.625Z,15.90
2022-12-08T03:59:26.084Z,16.70
2022-12-08T04:03:29.095Z,15.00
2022-12-08T04:07:32.175Z,15.67
2022-12-08T04:11:35.440Z,15.33
2022-12-08T04:15:39.887Z,15.07
2022-12-08T04:19:43.498Z,13.90
2022-12-08T04:23:47.152Z,14.70
2022-12-08T04:27:50.250Z,14.90
2022-12-08T04:31:54.750Z,15.73
2022-12-08T04:35:57.924Z,14.80
2022-12-08T04:40:01.055Z,14.00
2022-12-08T04:44:04.487Z,14.27
2022-12-08T04:48:09.741Z,13.83
2022-12-08T04:52:13.003Z,13.77
2022-12-08T04:56:17.061Z,13.07
2022-12-08T05:00:20.953Z,12.97
2022-12-08T05:04:25.861Z,12.87
2022-12-08T05:08:29.470Z,13.73
2022-12-08T05:12:32.744Z,14.07
2022-12-08T05:16:54.012Z,14.37
2022-12-08T05:20:58.532Z,13.07
2022-12-08T05:25:01.738Z,13.50
2022-12-08T05:29:04.949Z,13.93
2022-12-08T05:33:08.889Z,12.20
2022-12-08T05:37:13.407Z,13.33
2022-12-08T05:41:19.690Z,13.97
2022-12-08T05:45:22.731Z,13.60
2022-12-08T05:49:25.948Z,13.97
2022-12-08T05:53:30.467Z,12.97
2022-12-08T05:57:33.554Z,12.07
2022-12-08T06:01:36.795Z,12.23
2022-12-08T06:05:40.022Z,13.27
2022-12-08T06:09:44.685Z,13.33
2022-12-08T06:14:21.072Z,13.43
2022-12-08T06:18:58.476Z,13.27
2022-12-08T06:23:35.294Z,12.33
2022-12-08T06:28:13.644Z,13.00
2022-12-08T06:32:47.536Z,13.17
2022-12-08T06:36:50.613Z,13.87
2022-12-08T06:40:55.970Z,14.50
2022-12-08T06:45:31.003Z,14.53
2022-12-08T06:50:05.438Z,14.73
2022-12-08T06:54:39.420Z,16.60
2022-12-08T06:59:17.685Z,16.33
2022-12-08T07:03:22.138Z,26.57
2022-12-08T07:07:55.835Z,22.27
2022-12-08T07:12:32.847Z,17.47
2022-12-08T07:17:09.834Z,18.17
2022-12-08T07:21:46.452Z,15.03
2022-12-08T07:26:24.926Z,14.77
2022-12-08T07:30:58.950Z,14.90
2022-12-08T07:35:35.570Z,15.43
2022-12-08T07:39:38.688Z,15.20
2022-12-08T07:43:44.169Z,13.80
2022-12-08T07:48:18.448Z,15.17
2022-12-08T07:52:55.568Z,14.10
2022-12-08T07:57:32.268Z,14.97
2022-12-08T08:02:23.499Z,13.97
2022-12-08T08:06:48.014Z,13.30
2022-12-08T08:11:22.158Z,11.37
2022-12-08T08:16:03.904Z,12.60
2022-12-08T08:20:34.812Z,12.50
2022-12-08T08:25:12.896Z,12.83
2022-12-08T08:29:15.926Z,12.20
2022-12-08T08:33:18.978Z,13.60
2022-12-08T08:37:22.054Z,13.83
2022-12-08T08:41:58.926Z,13.60
2022-12-08T08:46:37.311Z,14.57
2022-12-08T08:51:11.753Z,15.63
2022-12-08T08:55:45.502Z,15.10
2022-12-08T09:00:22.349Z,12.87
2022-12-08T09:04:26.918Z,14.07
2022-12-08T09:09:01.031Z,13.47
2022-12-08T09:13:06.206Z,13.67
2022-12-08T09:17:39.891Z,13.80
2022-12-08T09:22:18.466Z,13.83
2022-12-08T09:26:52.204Z,12.87
2022-12-08T09:31:28.762Z,13.80
2022-12-08T09:36:06.076Z,12.87
2022-12-08T09:40:48.091Z,12.30
2022-12-08T09:44:59.949Z,13.17
2022-12-08T09:49:04.506Z,13.57
2022-12-08T09:53:40.444Z,13.53
2022-12-08T09:57:45.075Z,14.97
2022-12-08T10:02:22.171Z,13.17
2022-12-08T10:06:34.502Z,13.17
2022-12-08T10:10:43.113Z,12.07
2022-12-08T10:14:50.089Z,12.90
2022-12-08T10:19:23.951Z,14.37
2022-12-08T10:24:05.270Z,11.83
2022-12-08T10:28:10.684Z,13.00
2022-12-08T10:32:19.702Z,15.20
2022-12-08T10:36:22.774Z,12.23
2022-12-08T10:40:28.777Z,14.47
2022-12-08T10:45:05.267Z,12.93
2022-12-08T10:49:40.468Z,12.60
2022-12-08T10:54:25.793Z,14.10
2022-12-08T10:58:50.587Z,14.83
2022-12-08T11:03:29.441Z,14.70
2022-12-08T11:08:03.216Z,14.20
2022-12-08T11:12:18.837Z,16.60
2022-12-08T11:16:50.637Z,16.40
2022-12-08T11:21:37.252Z,15.73
2022-12-08T11:26:13.928Z,14.13
2022-12-08T11:30:44.705Z,16.60
2022-12-08T11:35:25.766Z,14.13
2022-12-08T11:39:30.802Z,13.97
2022-12-08T11:44:06.875Z,12.50
2022-12-08T11:48:40.260Z,11.97
2022-12-08T11:53:23.751Z,11.77
2022-12-08T11:57:51.936Z,11.33
2022-12-08T12:02:29.005Z,10.50
2022-12-08T12:07:26.822Z,11.47
2022-12-08T12:12:15.829Z,11.90
2022-12-08T12:16:51.878Z,11.37
2022-12-08T12:21:19.973Z,10.47
2022-12-08T12:25:52.364Z,14.00
2022-12-08T12:29:59.278Z,14.17
2022-12-08T12:34:34.516Z,14.27
2022-12-08T12:39:20.897Z,15.83
2022-12-08T12:44:06.542Z,23.97
2022-12-08T12:49:04.244Z,14.57
2022-12-08T12:53:44.617Z,13.17
2022-12-08T12:57:54.690Z,15.73
2022-12-08T13:02:25.863Z,12.27
2022-12-08T13:06:37.007Z,10.83
2022-12-08T13:10:41.429Z,7.53
2022-12-08T13:15:23.120Z,8.80
2022-12-08T13:19:53.698Z,8.50
2022-12-08T13:24:32.383Z,9.67
2022-12-08T13:29:12.538Z,9.57
2022-12-08T13:33:50.929Z,9.90
2022-12-08T13:38:27.548Z,7.63
2022-12-08T13:43:01.932Z,9.20
2022-12-08T13:47:41.453Z,8.67
2022-12-08T13:57:06.783Z,8.67
2022-12-08T14:01:13.974Z,7.90
2022-12-08T14:10:48.302Z,7.53
2022-12-08T14:15:03.013Z,7.77
2022-12-08T14:19:12.472Z,8.70
2022-12-08T14:23:18.743Z,9.23
2022-12-08T14:27:25.532Z,7.03
2022-12-08T14:31:59.222Z,7.10
2022-12-08T14:36:36.422Z,6.90
2022-12-08T14:40:41.382Z,7.57
2022-12-08T14:44:46.473Z,6.63
2022-12-08T14:48:49.573Z,6.63
2022-12-08T14:53:26.583Z,7.43
2022-12-08T14:57:35.892Z,6.80
2022-12-08T15:02:21.869Z,6.90
2022-12-08T15:06:26.366Z,6.90
2022-12-08T15:10:32.065Z,6.57
2022-12-08T15:15:16.849Z,6.77
2022-12-08T15:19:41.713Z,6.50
2022-12-08T15:23:47.316Z,12.33
2022-12-08T15:28:29.409Z,11.80
2022-12-08T15:32:33.193Z,13.33
2022-12-08T15:36:38.393Z,15.30
2022-12-08T15:41:15.189Z,14.63
2022-12-08T15:45:20.353Z,15.80
2022-12-08T15:49:25.240Z,14.53
2022-12-08T15:53:28.236Z,13.60
2022-12-08T15:58:30.762Z,14.57
2022-12-08T16:01:57.948Z,13.47
2022-12-08T16:07:12.805Z,14.33
2022-12-08T16:12:04.105Z,12.63
2022-12-08T16:15:55.118Z,12.97
2022-12-08T16:20:05.751Z,12.13
2022-12-08T16:24:09.600Z,12.37
2022-12-08T16:28:53.757Z,12.60
2022-12-08T16:32:57.570Z,13.43
2022-12-08T16:37:35.925Z,13.07
2022-12-08T16:41:56.545Z,13.50
2022-12-08T16:45:59.610Z,12.87
2022-12-08T16:50:05.986Z,15.13
2022-12-08T16:54:10.759Z,15.43
2022-12-08T16:58:44.466Z,14.90
2022-12-08T17:02:47.807Z,13.13
2022-12-08T17:07:21.722Z,18.77
2022-12-08T17:11:28.576Z,18.60
2022-12-08T17:15:31.614Z,17.90
2022-12-08T17:19:35.026Z,28.13
2022-12-08T17:23:38.513Z,23.57
2022-12-08T17:27:43.373Z,21.17
2022-12-08T17:31:46.468Z,20.13
2022-12-08T17:35:50.060Z,21.30
2022-12-08T17:39:53.201Z,23.07
2022-12-08T17:43:57.831Z,24.17
2022-12-08T17:48:00.865Z,24.27
2022-12-08T17:52:37.942Z,23.73
2022-12-08T17:56:40.960Z,21.70
2022-12-08T18:00:45.383Z,20.47
2022-12-08T18:05:19.143Z,20.13
2022-12-08T18:09:22.253Z,19.87
2022-12-08T18:13:25.922Z,19.80
2022-12-08T18:18:04.298Z,19.07
2022-12-08T18:22:07.508Z,20.03
2022-12-08T18:26:12.970Z,18.90
2022-12-08T18:30:18.402Z,18.03
2022-12-08T18:34:53.945Z,18.37
2022-12-08T18:38:57.185Z,18.20
2022-12-08T18:43:00.437Z,20.40
2022-12-08T18:47:03.503Z,17.30
2022-12-08T18:51:41.539Z,19.03
2022-12-08T18:55:46.743Z,18.27
2022-12-08T18:59:49.882Z,20.47
2022-12-08T19:04:20.102Z,20.70
2022-12-08T19:08:32.452Z,19.83
2022-12-08T19:13:07.171Z,25.50
2022-12-08T19:17:44.102Z,27.37
2022-12-08T19:21:47.093Z,21.43
2022-12-08T19:31:11.352Z,21.93
2022-12-08T19:35:50.715Z,18.60
2022-12-08T19:40:37.731Z,20.30
2022-12-08T19:44:55.892Z,21.53
2022-12-08T19:49:18.666Z,20.87
2022-12-08T19:53:52.697Z,21.97
2022-12-08T19:58:29.483Z,20.80
2022-12-08T20:03:06.581Z,19.67
2022-12-08T20:07:13.962Z,20.40
2022-12-08T20:11:17.030Z,21.83
2022-12-08T20:15:20.064Z,22.30
2022-12-08T20:19:23.116Z,21.90
2022-12-08T20:23:59.998Z,24.33
2022-12-08T20:28:04.847Z,24.20
2022-12-08T20:32:08.165Z,21.90
2022-12-08T20:36:45.042Z,22.87
2022-12-08T20:40:49.708Z,22.00
2022-12-08T20:44:54.201Z,21.93
2022-12-08T20:48:57.929Z,22.57
2022-12-08T20:53:01.037Z,26.13
2022-12-08T20:57:37.658Z,25.03
2022-12-08T21:01:42.295Z,23.67
2022-12-08T21:06:16.638Z,25.67
2022-12-08T21:10:54.165Z,27.93
2022-12-08T21:14:57.392Z,25.80
2022-12-08T21:19:02.048Z,27.10
2022-12-08T21:23:36.294Z,25.93
2022-12-08T21:27:40.032Z,24.63
2022-12-08T21:32:14.084Z,25.53
2022-12-08T21:36:21.838Z,25.23
2022-12-08T21:40:25.123Z,24.27
2022-12-08T21:44:29.388Z,25.83
2022-12-08T21:49:06.436Z,24.03
2022-12-08T21:53:10.987Z,23.63
2022-12-08T21:57:14.666Z,23.80
2022-12-08T22:01:49.402Z,23.80
2022-12-08T22:05:52.859Z,23.50
2022-12-08T22:09:57.536Z,24.57
2022-12-08T22:14:00.701Z,23.30
2022-12-08T22:18:04.816Z,23.77
2022-12-08T22:22:07.978Z,23.03
2022-12-08T22:26:13.073Z,23.03
2022-12-08T22:30:16.361Z,23.00
2022-12-08T22:34:19.561Z,23.60
2022-12-08T22:38:56.503Z,22.13
2022-12-08T22:43:00.934Z,22.70
2022-12-08T22:47:04.216Z,23.23
2022-12-08T22:51:40.735Z,23.50
2022-12-08T22:55:44.737Z,21.00
2022-12-08T22:59:49.436Z,21.67
2022-12-08T23:03:52.649Z,22.10
2022-12-08T23:07:56.178Z,21.90
2022-12-08T23:11:59.301Z,20.30
2022-12-08T23:16:35.437Z,22.30
2022-12-08T23:20:38.746Z,21.77
2022-12-08T23:24:41.925Z,22.70
2022-12-08T23:28:45.301Z,22.23
2022-12-08T23:32:50.071Z,23.80
2022-12-08T23:36:53.253Z,23.40
2022-12-08T23:40:56.365Z,23.43
2022-12-08T23:44:59.434Z,23.27
2022-12-08T23:49:03.908Z,24.17
2022-12-08T23:53:41.229Z,21.83
2022-12-08T23:57:44.599Z,21.90
